createdAt,value
2022-10-12T00:00:39.193Z,11.00
2022-10-12T00:03:07.134Z,11.02
2022-10-12T00:05:36.635Z,11.02
2022-10-12T00:08:04.569Z,10.94
2022-10-12T00:10:32.400Z,10.93
2022-10-12T00:13:00.344Z,10.99
2022-10-12T00:15:28.478Z,10.96
2022-10-12T00:17:56.603Z,10.95
2022-10-12T00:20:24.639Z,10.90
2022-10-12T00:22:53.848Z,10.91
2022-10-12T00:25:21.711Z,10.83
2022-10-12T00:27:49.517Z,10.84
2022-10-12T00:30:17.552Z,10.79
2022-10-12T00:32:45.682Z,10.77
2022-10-12T00:35:13.780Z,10.74
2022-10-12T00:37:41.697Z,10.64
2022-10-12T00:40:12.483Z,10.64
2022-10-12T00:42:40.354Z,10.56
2022-10-12T00:45:10.729Z,10.59
2022-10-12T00:47:40.156Z,10.59
2022-10-12T00:50:12.175Z,10.60
2022-10-12T00:52:43.708Z,10.65
2022-10-12T00:55:16.637Z,10.66
2022-10-12T00:57:47.124Z,10.70
2022-10-12T01:00:16.366Z,10.71
2022-10-12T01:02:44.865Z,10.73
2022-10-12T01:05:13.767Z,10.68
2022-10-12T01:07:41.586Z,10.74
2022-10-12T01:10:10.306Z,10.67
2022-10-12T01:12:40.586Z,10.82
2022-10-12T01:15:09.383Z,10.77
2022-10-12T01:17:44.298Z,10.78
2022-10-12T01:20:35.830Z,10.86
2022-10-12T01:23:27.391Z,10.84
2022-10-12T01:26:07.500Z,10.85
2022-10-12T01:28:43.076Z,10.86
2022-10-12T01:31:16.812Z,10.90
2022-10-12T01:33:47.459Z,10.97
2022-10-12T01:36:18.576Z,10.90
2022-10-12T01:38:49.870Z,10.91
2022-10-12T01:41:21.657Z,10.92
2022-10-12T01:43:52.172Z,10.92
2022-10-12T01:46:47.436Z,10.90
2022-10-12T01:49:17.322Z,10.91
2022-10-12T01:51:56.850Z,11.05
2022-10-12T01:54:30.026Z,10.99
2022-10-12T01:57:00.866Z,11.00
2022-10-12T01:59:36.301Z,11.10
2022-10-12T02:02:09.822Z,11.05
2022-10-12T02:04:39.600Z,11.07
2022-10-12T02:07:11.059Z,11.10
2022-10-12T02:09:40.056Z,11.08
2022-10-12T02:12:11.438Z,11.13
2022-10-12T02:14:41.493Z,11.15
2022-10-12T02:17:12.643Z,11.15
2022-10-12T02:19:41.993Z,11.16
2022-10-12T02:22:10.903Z,11.20
2022-10-12T02:24:41.523Z,11.22
2022-10-12T02:27:10.460Z,11.22
2022-10-12T02:29:41.217Z,11.16
2022-10-12T02:32:16.911Z,11.14
2022-10-12T02:34:46.244Z,11.13
2022-10-12T02:37:20.709Z,11.07
2022-10-12T02:39:54.217Z,11.02
2022-10-12T02:42:25.460Z,10.98
2022-10-12T02:44:54.099Z,10.99
2022-10-12T02:47:25.755Z,10.93
2022-10-12T02:49:54.956Z,10.89
2022-10-12T02:52:24.133Z,10.75
2022-10-12T02:54:51.983Z,10.61
2022-10-12T02:57:19.883Z,10.57
2022-10-12T02:59:47.675Z,10.45
2022-10-12T03:02:15.491Z,10.38
2022-10-12T03:04:45.033Z,10.34
2022-10-12T03:07:12.843Z,10.30
2022-10-12T03:09:40.671Z,10.31
2022-10-12T03:12:08.622Z,10.47
2022-10-12T03:14:37.517Z,10.30
2022-10-12T03:17:05.827Z,10.25
2022-10-12T03:19:33.791Z,10.17
2022-10-12T03:22:02.959Z,10.05
2022-10-12T03:24:30.814Z,9.96
2022-10-12T03:26:58.973Z,9.98
2022-10-12T03:29:26.822Z,9.99
2022-10-12T03:31:54.730Z,9.96
2022-10-12T03:34:22.700Z,9.94
2022-10-12T03:36:50.494Z,9.99
2022-10-12T03:39:19.765Z,9.94
2022-10-12T03:41:47.697Z,9.89
2022-10-12T03:44:15.522Z,9.83
2022-10-12T03:46:43.409Z,9.85
2022-10-12T03:49:11.303Z,9.81
2022-10-12T03:51:39.129Z,9.78
2022-10-12T03:54:07.243Z,9.79
2022-10-12T03:56:36.631Z,9.78
2022-10-12T03:59:04.691Z,9.79
2022-10-12T04:01:32.754Z,9.76
2022-10-12T04:04:00.612Z,9.75
2022-10-12T04:06:28.443Z,9.75
2022-10-12T04:08:56.511Z,9.69
2022-10-12T04:11:24.363Z,9.71
2022-10-12T04:13:53.578Z,9.75
2022-10-12T04:16:22.245Z,9.67
2022-10-12T04:18:50.544Z,9.70
2022-10-12T04:21:18.429Z,9.73
2022-10-12T04:23:46.275Z,9.76
2022-10-12T04:26:14.090Z,9.72
2022-10-12T04:28:41.987Z,9.76
2022-10-12T04:31:11.487Z,9.76
2022-10-12T04:33:39.320Z,9.75
2022-10-12T04:36:08.258Z,9.78
2022-10-12T04:38:36.468Z,9.75
2022-10-12T04:41:04.369Z,9.74
2022-10-12T04:43:32.305Z,9.75
2022-10-12T04:46:01.387Z,9.80
2022-10-12T04:48:30.579Z,9.75
2022-10-12T04:50:58.449Z,9.72
2022-10-12T04:53:26.330Z,9.66
2022-10-12T04:55:54.188Z,9.65
2022-10-12T04:58:22.070Z,9.59
2022-10-12T05:00:50.551Z,9.58
2022-10-12T05:03:18.400Z,9.52
2022-10-12T05:05:47.772Z,9.49
2022-10-12T05:08:15.745Z,9.40
2022-10-12T05:10:43.589Z,9.35
2022-10-12T05:13:11.485Z,9.31
2022-10-12T05:15:39.334Z,9.28
2022-10-12T05:18:07.375Z,9.32
2022-10-12T05:20:35.240Z,9.29
2022-10-12T05:23:04.559Z,9.34
2022-10-12T05:25:32.492Z,9.26
2022-10-12T05:28:00.411Z,9.36
2022-10-12T05:30:28.330Z,9.35
2022-10-12T05:32:56.160Z,9.34
2022-10-12T05:35:24.031Z,9.35
2022-10-12T05:37:52.101Z,9.40
2022-10-12T05:40:21.374Z,9.28
2022-10-12T05:42:49.218Z,9.28
2022-10-12T05:45:18.858Z,9.32
2022-10-12T05:47:46.719Z,9.26
2022-10-12T05:50:14.527Z,9.23
2022-10-12T05:52:42.398Z,9.32
2022-10-12T05:55:10.912Z,9.31
2022-10-12T05:57:40.142Z,9.23
2022-10-12T06:00:09.534Z,9.12
2022-10-12T06:02:40.349Z,9.36
2022-10-12T06:05:08.792Z,9.42
2022-10-12T06:07:36.729Z,9.24
2022-10-12T06:10:05.747Z,9.33
2022-10-12T06:12:33.965Z,9.28
2022-10-12T06:15:03.375Z,9.34
2022-10-12T06:17:31.212Z,9.29
2022-10-12T06:19:59.044Z,9.29
2022-10-12T06:22:26.979Z,9.28
2022-10-12T06:24:55.033Z,9.29
2022-10-12T06:27:23.020Z,9.50
2022-10-12T06:29:50.841Z,9.53
2022-10-12T06:32:20.089Z,9.69
2022-10-12T06:34:47.975Z,9.63
2022-10-12T06:37:44.429Z,9.78
2022-10-12T06:40:03.844Z,9.78
2022-10-12T06:42:31.662Z,9.92
2022-10-12T06:44:59.785Z,9.91
2022-10-12T06:47:29.134Z,9.84
2022-10-12T06:49:56.990Z,9.77
2022-10-12T06:52:24.865Z,9.93
2022-10-12T06:54:52.728Z,9.98
2022-10-12T06:57:20.697Z,9.94
2022-10-12T06:59:48.553Z,10.09
2022-10-12T07:02:16.435Z,10.13
2022-10-12T07:04:45.743Z,10.15
2022-10-12T07:07:13.584Z,10.35
2022-10-12T07:09:41.460Z,10.47
2022-10-12T07:12:09.291Z,10.37
2022-10-12T07:14:37.177Z,10.47
2022-10-12T07:17:05.451Z,10.33
2022-10-12T07:19:33.374Z,10.34
2022-10-12T07:22:02.737Z,10.40
2022-10-12T07:24:36.182Z,10.45
2022-10-12T07:27:04.480Z,10.50
2022-10-12T07:29:32.701Z,10.43
2022-10-12T07:32:01.001Z,10.44
2022-10-12T07:34:29.537Z,10.31
2022-10-12T07:36:59.934Z,10.36
2022-10-12T07:39:29.443Z,10.42
2022-10-12T07:41:57.530Z,10.60
2022-10-12T07:44:25.552Z,10.49
2022-10-12T07:46:53.620Z,10.58
2022-10-12T07:49:21.475Z,10.66
2022-10-12T07:51:49.339Z,10.78
2022-10-12T07:54:21.063Z,11.08
2022-10-12T07:56:52.099Z,11.05
2022-10-12T07:59:19.978Z,11.00
2022-10-12T08:01:47.895Z,10.95
2022-10-12T08:04:15.853Z,11.16
2022-10-12T08:06:44.732Z,11.29
2022-10-12T08:09:12.561Z,11.46
2022-10-12T08:11:41.692Z,11.59
2022-10-12T08:14:14.623Z,11.65
2022-10-12T08:16:42.749Z,11.78
2022-10-12T08:19:10.717Z,12.15
2022-10-12T08:21:38.607Z,12.07
2022-10-12T08:24:07.098Z,12.40
2022-10-12T08:26:34.919Z,12.37
2022-10-12T08:29:03.006Z,12.53
2022-10-12T08:31:32.316Z,12.43
2022-10-12T08:34:00.276Z,12.47
2022-10-12T08:36:28.593Z,12.39
2022-10-12T08:38:56.750Z,12.70
2022-10-12T08:41:40.642Z,12.84
2022-10-12T08:44:18.684Z,12.82
2022-10-12T08:46:48.670Z,12.78
2022-10-12T08:49:19.075Z,12.63
2022-10-12T08:51:49.754Z,12.67
2022-10-12T08:54:20.294Z,12.82
2022-10-12T08:56:54.178Z,12.99
2022-10-12T08:59:22.157Z,13.02
2022-10-12T09:02:01.027Z,12.99
2022-10-12T09:04:40.485Z,13.29
2022-10-12T09:07:12.774Z,13.49
2022-10-12T09:09:50.070Z,13.71
2022-10-12T09:12:30.587Z,13.97
2022-10-12T09:15:02.893Z,13.96
2022-10-12T09:17:38.433Z,14.27
2022-10-12T09:20:08.814Z,14.32
2022-10-12T09:22:37.122Z,14.49
2022-10-12T09:25:11.958Z,14.23
2022-10-12T09:27:45.041Z,14.38
2022-10-12T09:30:15.536Z,14.68
2022-10-12T09:33:00.258Z,14.41
2022-10-12T09:35:28.478Z,14.04
2022-10-12T09:37:56.680Z,14.47
2022-10-12T09:40:26.773Z,14.88
2022-10-12T09:42:55.523Z,14.64
2022-10-12T09:45:23.843Z,15.11
2022-10-12T09:48:26.301Z,15.57
2022-10-12T09:50:56.184Z,15.57
2022-10-12T09:53:27.867Z,15.12
2022-10-12T09:55:59.654Z,15.39
2022-10-12T09:58:29.027Z,15.26
2022-10-12T10:01:23.584Z,14.67
2022-10-12T10:04:09.739Z,14.77
2022-10-12T10:06:38.528Z,14.80
2022-10-12T10:09:06.835Z,15.08
2022-10-12T10:11:35.572Z,14.96
2022-10-12T10:14:03.612Z,15.03
2022-10-12T10:16:31.878Z,14.97
2022-10-12T10:19:02.992Z,15.29
2022-10-12T10:21:33.182Z,14.82
2022-10-12T10:24:02.517Z,14.64
2022-10-12T10:26:32.122Z,14.73
2022-10-12T10:29:17.157Z,14.90
2022-10-12T10:31:48.040Z,15.05
2022-10-12T10:34:24.590Z,14.81
2022-10-12T10:36:53.979Z,14.92
2022-10-12T10:39:24.406Z,15.17
2022-10-12T10:41:53.335Z,14.94
2022-10-12T10:44:30.356Z,15.01
2022-10-12T10:47:00.274Z,15.37
2022-10-12T10:49:37.709Z,14.66
2022-10-12T10:52:06.702Z,14.75
2022-10-12T10:54:38.052Z,14.68
2022-10-12T10:57:10.411Z,14.57
2022-10-12T10:59:43.732Z,14.72
2022-10-12T11:02:26.902Z,14.67
2022-10-12T11:04:56.991Z,14.90
2022-10-12T11:07:29.162Z,14.82
2022-10-12T11:09:59.558Z,14.77
2022-10-12T11:12:31.834Z,15.12
2022-10-12T11:15:06.803Z,14.87
2022-10-12T11:17:36.471Z,14.61
2022-10-12T11:20:22.379Z,14.65
2022-10-12T11:22:52.168Z,14.50
2022-10-12T11:25:22.739Z,14.52
2022-10-12T11:27:53.729Z,14.48
2022-10-12T11:30:24.015Z,14.45
2022-10-12T11:32:55.006Z,14.40
2022-10-12T11:35:27.796Z,14.66
2022-10-12T11:38:00.301Z,14.15
2022-10-12T11:40:55.534Z,14.55
2022-10-12T11:43:21.393Z,14.81
2022-10-12T11:45:52.082Z,15.09
2022-10-12T11:48:27.154Z,14.80
2022-10-12T11:51:01.399Z,14.70
2022-10-12T11:53:36.327Z,14.65
2022-10-12T11:56:09.662Z,14.66
2022-10-12T11:59:00.110Z,14.59
2022-10-12T12:01:39.083Z,14.87
2022-10-12T12:04:42.813Z,15.14
2022-10-12T12:07:46.507Z,14.95
2022-10-12T12:10:51.797Z,14.97
2022-10-12T12:13:23.096Z,15.07
2022-10-12T12:16:35.395Z,15.08
2022-10-12T12:19:32.343Z,15.08
2022-10-12T12:22:28.615Z,15.13
2022-10-12T12:25:05.566Z,15.14
2022-10-12T12:27:37.150Z,15.25
2022-10-12T12:30:20.850Z,15.42
2022-10-12T12:32:50.759Z,15.06
2022-10-12T12:35:24.722Z,15.06
2022-10-12T12:38:06.558Z,15.22
2022-10-12T12:40:36.155Z,15.10
2022-10-12T12:43:37.367Z,15.40
2022-10-12T12:46:07.990Z,15.39
2022-10-12T12:49:04.097Z,15.40
2022-10-12T12:51:43.715Z,15.54
2022-10-12T12:54:21.274Z,15.62
2022-10-12T12:57:05.490Z,15.52
2022-10-12T12:59:48.482Z,15.57
2022-10-12T13:02:49.286Z,15.68
2022-10-12T13:05:55.434Z,16.06
2022-10-12T13:08:33.005Z,18.03
2022-10-12T13:11:34.713Z,18.92
2022-10-12T13:14:13.356Z,20.19
2022-10-12T13:17:31.219Z,21.24
2022-10-12T13:19:45.563Z,20.34
2022-10-12T13:22:16.693Z,20.39
2022-10-12T13:24:47.732Z,21.46
2022-10-12T13:27:20.822Z,20.74
2022-10-12T13:29:55.585Z,22.04
2022-10-12T13:32:33.333Z,21.46
2022-10-12T13:35:06.357Z,22.46
2022-10-12T13:37:36.023Z,20.93
2022-10-12T13:40:04.104Z,20.61
2022-10-12T13:42:33.599Z,19.04
2022-10-12T13:45:06.316Z,17.89
2022-10-12T13:47:34.440Z,17.56
2022-10-12T13:50:02.715Z,16.89
2022-10-12T13:52:33.552Z,16.80
2022-10-12T13:55:02.446Z,16.33
2022-10-12T13:57:35.804Z,16.52
2022-10-12T14:00:10.911Z,16.34
2022-10-12T14:02:38.945Z,16.33
2022-10-12T14:05:17.144Z,15.95
2022-10-12T14:07:45.989Z,15.97
2022-10-12T14:10:19.298Z,16.13
2022-10-12T14:12:50.157Z,16.07
2022-10-12T14:15:20.414Z,16.50
2022-10-12T14:17:50.783Z,17.06
2022-10-12T14:20:29.730Z,17.07
2022-10-12T14:22:58.702Z,17.52
2022-10-12T14:25:27.988Z,17.67
2022-10-12T14:27:57.067Z,17.32
2022-10-12T14:30:27.905Z,17.09
2022-10-12T14:32:59.790Z,16.96
2022-10-12T14:35:29.513Z,16.63
2022-10-12T14:37:57.798Z,16.52
2022-10-12T14:40:38.551Z,16.43
2022-10-12T14:43:20.049Z,16.02
2022-10-12T14:45:49.370Z,15.84
2022-10-12T14:48:19.153Z,16.01
2022-10-12T14:50:47.378Z,16.11
2022-10-12T14:53:15.802Z,16.21
2022-10-12T14:55:44.202Z,16.74
2022-10-12T14:58:15.981Z,16.63
2022-10-12T15:00:44.839Z,16.85
2022-10-12T15:03:14.177Z,17.18
2022-10-12T15:05:42.042Z,17.33
2022-10-12T15:08:10.529Z,18.27
2022-10-12T15:10:38.670Z,18.53
2022-10-12T15:13:06.529Z,17.88
2022-10-12T15:15:37.858Z,17.84
2022-10-12T15:18:05.875Z,18.05
2022-10-12T15:20:35.678Z,17.79
2022-10-12T15:23:04.132Z,17.13
2022-10-12T15:25:39.376Z,18.05
2022-10-12T15:28:07.419Z,18.89
2022-10-12T15:30:43.401Z,19.17
2022-10-12T15:33:20.294Z,19.47
2022-10-12T15:35:49.663Z,19.21
2022-10-12T15:38:17.766Z,18.94
2022-10-12T15:40:46.108Z,18.77
2022-10-12T15:45:48.048Z,18.03
2022-10-12T15:48:16.014Z,17.27
2022-10-12T15:50:46.499Z,16.93
2022-10-12T15:53:18.753Z,16.47
2022-10-12T15:55:46.594Z,15.89
2022-10-12T15:58:14.662Z,15.70
2022-10-12T16:00:43.020Z,15.44
2022-10-12T16:03:15.439Z,15.08
2022-10-12T16:05:43.535Z,14.90
2022-10-12T16:08:11.376Z,14.72
2022-10-12T16:10:41.983Z,14.58
2022-10-12T16:13:12.598Z,14.33
2022-10-12T16:15:40.631Z,14.27
2022-10-12T16:18:08.771Z,13.97
2022-10-12T16:20:38.800Z,13.84
2022-10-12T16:23:09.403Z,13.68
2022-10-12T16:25:37.305Z,13.63
2022-10-12T16:28:06.607Z,13.58
2022-10-12T16:30:34.697Z,13.39
2022-10-12T16:33:02.657Z,13.20
2022-10-12T16:35:30.600Z,13.10
2022-10-12T16:37:59.061Z,13.02
2022-10-12T16:40:27.013Z,12.82
2022-10-12T16:42:55.657Z,12.72
2022-10-12T16:45:25.840Z,12.79
2022-10-12T16:47:54.231Z,12.76
2022-10-12T16:50:23.487Z,12.64
2022-10-12T16:52:51.983Z,12.51
2022-10-12T16:55:20.827Z,12.51
2022-10-12T16:57:48.666Z,12.39
2022-10-12T17:00:19.132Z,12.21
2022-10-12T17:02:48.500Z,12.21
2022-10-12T17:05:16.403Z,12.02
2022-10-12T17:07:44.282Z,12.08
2022-10-12T17:10:12.200Z,11.97
2022-10-12T17:12:40.156Z,11.81
2022-10-12T17:15:09.082Z,11.71
2022-10-12T17:17:36.977Z,11.63
2022-10-12T17:20:07.430Z,11.65
2022-10-12T17:22:35.917Z,11.49
2022-10-12T17:25:04.056Z,11.33
2022-10-12T17:27:32.390Z,11.25
2022-10-12T17:30:00.562Z,11.18
2022-10-12T17:32:28.494Z,11.17
2022-10-12T17:34:56.360Z,11.10
2022-10-12T17:37:25.534Z,11.08
2022-10-12T17:39:53.586Z,10.93
2022-10-12T17:42:22.979Z,10.91
2022-10-12T17:44:50.883Z,10.92
2022-10-12T17:47:20.259Z,10.81
2022-10-12T17:49:48.341Z,10.76
2022-10-12T17:52:16.668Z,10.67
2022-10-12T17:54:46.045Z,10.71
2022-10-12T17:57:14.113Z,10.63
2022-10-12T17:59:42.408Z,10.65
2022-10-12T18:02:11.143Z,10.66
2022-10-12T18:04:39.155Z,10.52
2022-10-12T18:07:07.115Z,10.39
2022-10-12T18:09:35.251Z,10.42
2022-10-12T18:12:04.984Z,10.32
2022-10-12T18:14:32.907Z,10.24
2022-10-12T18:17:01.048Z,10.19
2022-10-12T18:19:28.944Z,10.26
2022-10-12T18:21:56.842Z,10.19
2022-10-12T18:24:25.062Z,10.26
2022-10-12T18:26:53.109Z,10.16
2022-10-12T18:29:23.907Z,10.07
2022-10-12T18:31:53.028Z,10.13
2022-10-12T18:34:20.845Z,10.02
2022-10-12T18:36:48.697Z,9.99
2022-10-12T18:39:16.643Z,9.90
2022-10-12T18:41:44.527Z,9.84
2022-10-12T18:44:14.895Z,9.83
2022-10-12T18:46:44.249Z,9.76
2022-10-12T18:49:12.658Z,9.65
2022-10-12T18:51:42.208Z,9.61
2022-10-12T18:54:12.764Z,9.56
2022-10-12T18:56:41.743Z,9.46
2022-10-12T18:59:10.201Z,9.36
2022-10-12T19:01:38.133Z,9.33
2022-10-12T19:04:07.805Z,9.36
2022-10-12T19:06:38.025Z,9.35
2022-10-12T19:09:06.501Z,9.25
2022-10-12T19:11:34.645Z,9.23
2022-10-12T19:14:04.596Z,9.20
2022-10-12T19:16:33.090Z,9.19
2022-10-12T19:19:02.847Z,9.18
2022-10-12T19:21:32.188Z,9.11
2022-10-12T19:24:03.298Z,9.08
2022-10-12T19:26:31.342Z,9.02
2022-10-12T19:28:59.285Z,8.93
2022-10-12T19:31:29.275Z,8.84
2022-10-12T19:33:58.063Z,8.83
2022-10-12T19:36:26.309Z,8.76
2022-10-12T19:38:57.988Z,8.76
2022-10-12T19:41:26.255Z,8.64
2022-10-12T19:43:54.651Z,8.61
2022-10-12T19:46:22.545Z,8.58
2022-10-12T19:48:53.741Z,8.54
2022-10-12T19:51:23.233Z,8.56
2022-10-12T19:53:54.081Z,8.52
2022-10-12T19:56:23.693Z,8.54
2022-10-12T19:58:52.861Z,8.56
2022-10-12T20:01:22.337Z,8.55
2022-10-12T20:03:50.987Z,8.53
2022-10-12T20:06:19.622Z,8.56
2022-10-12T20:08:47.509Z,8.47
2022-10-12T20:11:22.533Z,8.42
2022-10-12T20:13:53.963Z,8.41
2022-10-12T20:16:22.802Z,8.39
2022-10-12T20:18:51.394Z,8.35
2022-10-12T20:21:24.406Z,8.31
2022-10-12T20:23:52.334Z,8.30
2022-10-12T20:26:22.848Z,8.23
2022-10-12T20:28:51.089Z,8.11
2022-10-12T20:31:23.269Z,8.10
2022-10-12T20:33:52.778Z,8.02
2022-10-12T20:36:23.381Z,7.95
2022-10-12T20:38:51.290Z,7.90
2022-10-12T20:41:21.537Z,7.94
2022-10-12T20:43:49.437Z,8.10
2022-10-12T20:46:19.763Z,8.09
2022-10-12T20:48:47.600Z,7.97
2022-10-12T20:51:21.051Z,7.86
2022-10-12T20:53:50.756Z,7.81
2022-10-12T20:56:18.626Z,7.80
2022-10-12T20:58:46.507Z,7.74
2022-10-12T21:01:15.879Z,7.72
2022-10-12T21:03:45.169Z,7.74
2022-10-12T21:06:15.576Z,7.72
2022-10-12T21:08:43.671Z,7.68
2022-10-12T21:11:12.004Z,7.68
2022-10-12T21:13:41.188Z,7.65
2022-10-12T21:16:09.179Z,7.62
2022-10-12T21:18:38.443Z,7.64
2022-10-12T21:21:11.449Z,7.65
2022-10-12T21:23:39.357Z,7.65
2022-10-12T21:26:10.999Z,7.66
2022-10-12T21:28:38.951Z,7.57
2022-10-12T21:31:07.262Z,7.49
2022-10-12T21:33:35.316Z,7.47
2022-10-12T21:36:13.204Z,7.43
2022-10-12T21:38:41.661Z,7.41
2022-10-12T21:41:10.339Z,7.43
2022-10-12T21:43:39.286Z,7.44
2022-10-12T21:46:09.424Z,7.40
2022-10-12T21:48:37.948Z,7.40
2022-10-12T21:51:06.795Z,7.36
2022-10-12T21:53:38.663Z,7.41
2022-10-12T21:56:07.695Z,7.36
2022-10-12T21:58:35.591Z,7.38
2022-10-12T22:01:08.160Z,7.33
2022-10-12T22:03:36.246Z,7.27
2022-10-12T22:06:04.655Z,7.30
2022-10-12T22:08:33.129Z,7.26
2022-10-12T22:11:06.547Z,7.24
2022-10-12T22:13:34.678Z,7.12
2022-10-12T22:16:03.315Z,7.09
2022-10-12T22:18:31.338Z,7.11
2022-10-12T22:20:59.344Z,7.13
2022-10-12T22:23:27.166Z,7.13
2022-10-12T22:26:00.316Z,7.15
2022-10-12T22:28:30.139Z,7.12
2022-10-12T22:30:58.067Z,7.02
2022-10-12T22:33:25.917Z,6.95
2022-10-12T22:35:55.233Z,6.91
2022-10-12T22:38:23.254Z,6.84
2022-10-12T22:40:57.453Z,6.88
2022-10-12T22:43:26.106Z,6.93
2022-10-12T22:45:55.902Z,6.94
2022-10-12T22:48:24.573Z,6.96
2022-10-12T22:50:52.887Z,6.92
2022-10-12T22:53:21.871Z,6.96
2022-10-12T22:55:49.963Z,6.97
2022-10-12T22:58:17.903Z,6.97
2022-10-12T23:00:48.555Z,6.84
2022-10-12T23:03:17.868Z,6.82
2022-10-12T23:05:49.167Z,6.91
2022-10-12T23:08:17.071Z,6.93
2022-10-12T23:10:45.142Z,6.86
2022-10-12T23:13:13.099Z,6.80
2022-10-12T23:15:41.051Z,6.84
2022-10-12T23:18:09.030Z,6.84
2022-10-12T23:20:41.759Z,6.81
2022-10-12T23:23:09.805Z,6.74
2022-10-12T23:25:40.910Z,6.79
2022-10-12T23:28:10.035Z,6.74
2022-10-12T23:30:38.384Z,6.80
2022-10-12T23:33:06.250Z,6.84
2022-10-12T23:35:34.285Z,6.86
2022-10-12T23:38:03.471Z,6.82
2022-10-12T23:40:31.378Z,6.87
2022-10-12T23:42:59.179Z,6.96
2022-10-12T23:45:27.030Z,6.96
2022-10-12T23:47:54.886Z,6.96
2022-10-12T23:50:22.695Z,7.00
2022-10-12T23:52:50.550Z,7.05
2022-10-12T23:55:19.859Z,7.10
2022-10-12T23:57:47.810Z,7.04
